createdAt,value
2019-02-16T00:00:53.736Z,98273.75
2019-02-16T00:03:23.333Z,98271.65
2019-02-16T00:05:52.971Z,98270.52
2019-02-16T00:08:22.603Z,98270.01
2019-02-16T00:10:52.216Z,98275.98
2019-02-16T00:13:21.833Z,98266.02
2019-02-16T00:15:51.441Z,98262.70
2019-02-16T00:18:22.944Z,98263.63
2019-02-16T00:20:52.392Z,98256.91
2019-02-16T00:23:22.018Z,98257.76
2019-02-16T00:25:51.635Z,98257.30
2019-02-16T00:28:21.262Z,98249.20
2019-02-16T00:30:50.928Z,98253.95
2019-02-16T00:33:20.579Z,98248.56
2019-02-16T00:35:50.177Z,98258.84
2019-02-16T00:38:20.573Z,98249.44
2019-02-16T00:40:50.199Z,98245.29
2019-02-16T00:43:19.796Z,98248.27
2019-02-16T00:45:49.497Z,98242.59
2019-02-16T00:48:19.094Z,98244.17
2019-02-16T00:50:48.724Z,98235.05
2019-02-16T00:53:18.324Z,98228.72
2019-02-16T00:55:47.958Z,98224.79
2019-02-16T00:58:17.563Z,98228.95
2019-02-16T01:00:47.263Z,98227.32
2019-02-16T01:03:16.897Z,98225.59
2019-02-16T01:05:46.494Z,98229.67
2019-02-16T01:08:16.126Z,98228.50
2019-02-16T01:10:46.365Z,98223.69
2019-02-16T01:13:15.991Z,98224.69
2019-02-16T01:15:45.613Z,98218.37
2019-02-16T01:18:15.243Z,98219.58
2019-02-16T01:20:44.862Z,98215.73
2019-02-16T01:23:14.487Z,98211.46
2019-02-16T01:25:44.091Z,98211.83
2019-02-16T01:28:13.717Z,98209.22
2019-02-16T01:30:43.329Z,98201.81
2019-02-16T01:33:12.957Z,98207.38
2019-02-16T01:35:42.557Z,98202.17
2019-02-16T01:38:12.189Z,98199.30
2019-02-16T01:40:41.825Z,98200.22
2019-02-16T01:43:11.447Z,98193.13
2019-02-16T01:45:41.067Z,98195.13
2019-02-16T01:48:10.669Z,98188.61
2019-02-16T01:50:40.302Z,98187.99
2019-02-16T01:53:09.940Z,98194.63
2019-02-16T01:55:39.542Z,98181.73
2019-02-16T01:58:09.155Z,98187.22
2019-02-16T02:00:38.770Z,98178.11
2019-02-16T02:03:08.499Z,98176.44
2019-02-16T02:05:38.102Z,98180.08
2019-02-16T02:08:08.352Z,98175.51
2019-02-16T02:10:37.970Z,98170.50
2019-02-16T02:13:07.745Z,98170.44
2019-02-16T02:15:37.420Z,98173.11
2019-02-16T02:18:07.049Z,98174.28
2019-02-16T02:20:36.646Z,98169.76
2019-02-16T02:23:06.279Z,98166.33
2019-02-16T02:25:35.876Z,98169.43
2019-02-16T02:28:05.472Z,98164.06
2019-02-16T02:30:35.380Z,98163.36
2019-02-16T02:33:04.997Z,98164.98
2019-02-16T02:35:34.595Z,98159.98
2019-02-16T02:38:04.262Z,98161.42
2019-02-16T02:40:33.845Z,98161.26
2019-02-16T02:43:03.441Z,98158.45
2019-02-16T02:45:33.076Z,98158.49
2019-02-16T02:48:02.675Z,98164.31
2019-02-16T02:50:32.300Z,98156.39
2019-02-16T02:53:01.900Z,98154.05
2019-02-16T02:55:31.540Z,98152.95
2019-02-16T02:58:01.133Z,98155.97
2019-02-16T03:00:30.762Z,98160.20
2019-02-16T03:03:00.394Z,98153.19
2019-02-16T03:05:31.770Z,98146.48
2019-02-16T03:08:01.402Z,98149.16
2019-02-16T03:10:30.994Z,98148.17
2019-02-16T03:13:00.622Z,98143.46
2019-02-16T03:15:30.227Z,98151.69
2019-02-16T03:17:59.862Z,98148.59
2019-02-16T03:20:29.695Z,98140.86
2019-02-16T03:23:16.708Z,98149.03
2019-02-16T03:25:59.527Z,98151.30
2019-02-16T03:28:39.444Z,98153.48
2019-02-16T03:32:00.704Z,98154.30
2019-02-16T03:34:52.045Z,98148.59
2019-02-16T03:37:47.330Z,98142.78
2019-02-16T03:40:16.931Z,98140.61
2019-02-16T03:42:46.537Z,98143.97
2019-02-16T03:45:16.161Z,98146.75
2019-02-16T03:47:45.768Z,98150.38
2019-02-16T03:50:15.392Z,98142.46
2019-02-16T03:52:45.002Z,98143.04
2019-02-16T03:55:14.632Z,98147.48
2019-02-16T03:57:44.239Z,98143.81
2019-02-16T04:00:13.974Z,98149.92
2019-02-16T04:02:44.626Z,98146.95
2019-02-16T04:05:14.223Z,98152.23
2019-02-16T04:07:43.846Z,98147.31
2019-02-16T04:10:13.472Z,98152.54
2019-02-16T04:12:43.077Z,98153.75
2019-02-16T04:15:12.771Z,98156.02
2019-02-16T04:17:42.375Z,98150.31
2019-02-16T04:20:12.075Z,98150.38
2019-02-16T04:22:41.702Z,98158.36
2019-02-16T04:25:11.328Z,98160.23
2019-02-16T04:27:40.922Z,98161.16
2019-02-16T04:30:10.697Z,98158.20
2019-02-16T04:32:40.325Z,98158.10
2019-02-16T04:35:10.064Z,98159.02
2019-02-16T04:37:39.665Z,98159.97
2019-02-16T04:40:09.350Z,98157.17
2019-02-16T04:42:38.981Z,98157.28
2019-02-16T04:45:08.718Z,98153.95
2019-02-16T04:47:38.340Z,98151.33
2019-02-16T04:50:08.904Z,98152.80
2019-02-16T04:52:38.512Z,98156.57
2019-02-16T04:55:09.050Z,98154.34
2019-02-16T04:57:38.651Z,98153.77
2019-02-16T05:00:10.100Z,98159.48
2019-02-16T05:02:39.702Z,98156.18
2019-02-16T05:05:09.436Z,98155.38
2019-02-16T05:07:39.071Z,98146.77
2019-02-16T05:10:10.654Z,98147.09
2019-02-16T05:12:41.044Z,98151.94
2019-02-16T05:15:11.179Z,98151.09
2019-02-16T05:17:40.810Z,98148.62
2019-02-16T05:20:10.474Z,98148.61
2019-02-16T05:22:44.523Z,98147.87
2019-02-16T05:25:11.872Z,98148.66
2019-02-16T05:27:41.494Z,98149.22
2019-02-16T05:30:11.264Z,98150.25
2019-02-16T05:32:41.132Z,98146.27
2019-02-16T05:35:10.895Z,98154.63
2019-02-16T05:37:40.500Z,98151.58
2019-02-16T05:40:10.389Z,98152.56
2019-02-16T05:42:40.015Z,98159.42
2019-02-16T05:45:10.624Z,98158.22
2019-02-16T05:47:40.252Z,98160.99
2019-02-16T05:50:09.945Z,98153.87
2019-02-16T05:52:39.571Z,98155.76
2019-02-16T05:55:09.382Z,98156.34
2019-02-16T05:57:39.019Z,98157.83
2019-02-16T06:00:12.163Z,98162.81
2019-02-16T06:02:41.817Z,98159.98
2019-02-16T06:05:11.514Z,98160.36
2019-02-16T06:07:41.109Z,98163.91
2019-02-16T06:10:10.813Z,98160.55
2019-02-16T06:12:40.421Z,98165.25
2019-02-16T06:15:10.563Z,98166.73
2019-02-16T06:17:40.230Z,98168.25
2019-02-16T06:20:10.469Z,98169.36
2019-02-16T06:22:40.104Z,98167.56
2019-02-16T06:25:09.886Z,98172.54
2019-02-16T06:27:39.548Z,98180.14
2019-02-16T06:30:10.266Z,98180.19
2019-02-16T06:32:39.893Z,98186.59
2019-02-16T06:35:29.283Z,98185.04
2019-02-16T06:37:59.504Z,98186.61
2019-02-16T06:40:29.142Z,98187.92
2019-02-16T06:42:58.748Z,98187.25
2019-02-16T06:45:29.030Z,98194.12
2019-02-16T06:47:58.656Z,98192.13
2019-02-16T06:50:36.521Z,98195.55
2019-02-16T06:52:59.612Z,98202.10
2019-02-16T06:55:30.852Z,98202.41
2019-02-16T06:58:00.476Z,98202.65
2019-02-16T07:00:30.076Z,98206.10
2019-02-16T07:02:59.702Z,98202.50
2019-02-16T07:05:29.306Z,98205.91
2019-02-16T07:07:58.935Z,98196.94
2019-02-16T07:10:28.525Z,98201.25
2019-02-16T07:12:58.151Z,98200.98
2019-02-16T07:15:27.763Z,98204.70
2019-02-16T07:18:17.377Z,98207.58
2019-02-16T07:20:47.003Z,98205.20
2019-02-16T07:23:22.468Z,98203.09
2019-02-16T07:25:47.951Z,98213.58
2019-02-16T07:28:17.567Z,98207.61
2019-02-16T07:30:47.174Z,98207.84
2019-02-16T07:33:17.669Z,98202.96
2019-02-16T07:35:47.349Z,98200.04
2019-02-16T07:38:16.946Z,98204.28
2019-02-16T07:40:46.924Z,98204.09
2019-02-16T07:43:18.156Z,98208.58
2019-02-16T07:45:49.406Z,98196.50
2019-02-16T07:48:20.670Z,98200.42
2019-02-16T07:50:54.416Z,98195.88
2019-02-16T07:53:31.256Z,98196.88
2019-02-16T07:55:58.679Z,98193.84
2019-02-16T07:58:35.636Z,98195.41
2019-02-16T08:01:22.768Z,98194.98
2019-02-16T08:03:53.999Z,98198.97
2019-02-16T08:06:23.385Z,98197.45
2019-02-16T08:09:00.407Z,98187.44
2019-02-16T08:11:37.509Z,98190.69
2019-02-16T08:14:09.708Z,98187.44
2019-02-16T08:16:46.849Z,98190.80
2019-02-16T08:19:33.037Z,98186.44
2019-02-16T08:22:06.825Z,98192.48
2019-02-16T08:24:38.746Z,98188.43
2019-02-16T08:27:26.388Z,98184.12
2019-02-16T08:30:01.028Z,98180.05
2019-02-16T08:32:44.059Z,98178.08
2019-02-16T08:35:30.608Z,98177.36
2019-02-16T08:41:26.732Z,98183.62
2019-02-16T08:43:58.206Z,98185.17
2019-02-16T08:46:44.656Z,98176.31
2019-02-16T08:49:18.599Z,98181.48
2019-02-16T08:51:49.868Z,98175.25
2019-02-16T08:54:24.128Z,98186.62
2019-02-16T08:56:55.388Z,98185.02
2019-02-16T08:59:29.185Z,98180.98
2019-02-16T09:02:01.273Z,98180.55
2019-02-16T09:04:47.374Z,98174.44
2019-02-16T09:07:27.761Z,98173.14
2019-02-16T09:10:13.901Z,98174.38
2019-02-16T09:12:51.094Z,98168.23
2019-02-16T09:15:22.362Z,98159.24
2019-02-16T09:17:53.911Z,98154.09
2019-02-16T09:20:29.373Z,98149.42
2019-02-16T09:23:00.609Z,98149.04
2019-02-16T09:25:42.181Z,98142.92
2019-02-16T09:28:16.077Z,98144.86
2019-02-16T09:30:53.489Z,98142.52
2019-02-16T09:33:36.611Z,98149.11
2019-02-16T09:36:22.947Z,98139.26
2019-02-16T09:39:12.472Z,98138.02
2019-02-16T09:41:52.828Z,98140.23
2019-02-16T09:44:26.903Z,98130.45
2019-02-16T09:46:58.169Z,98134.25
2019-02-16T09:49:41.614Z,98129.88
2019-02-16T09:52:21.654Z,98129.79
2019-02-16T09:55:11.680Z,98127.78
2019-02-16T09:57:42.917Z,98126.42
2019-02-16T10:00:24.553Z,98118.00
2019-02-16T10:03:01.690Z,98119.59
2019-02-16T10:05:48.906Z,98112.64
2019-02-16T10:08:31.861Z,98115.80
2019-02-16T10:11:03.864Z,98110.50
2019-02-16T10:13:35.393Z,98114.12
2019-02-16T10:16:09.393Z,98107.47
2019-02-16T10:18:43.260Z,98107.28
2019-02-16T10:21:14.531Z,98102.87
2019-02-16T10:23:54.664Z,98096.19
2019-02-16T10:26:25.934Z,98095.98
2019-02-16T10:28:57.205Z,98086.86
2019-02-16T10:31:28.443Z,98087.98
2019-02-16T10:34:06.675Z,98080.98
2019-02-16T10:36:56.193Z,98079.63
2019-02-16T10:39:27.475Z,98072.63
2019-02-16T10:42:02.750Z,98072.63
2019-02-16T10:44:34.026Z,98065.26
2019-02-16T10:47:08.300Z,98065.73
2019-02-16T10:52:55.246Z,98051.89
2019-02-16T10:55:36.422Z,98052.53
2019-02-16T10:58:19.649Z,98055.71
2019-02-16T11:00:53.883Z,98057.78
2019-02-16T11:03:25.643Z,98054.12
2019-02-16T11:05:56.870Z,98055.61
2019-02-16T11:08:28.138Z,98050.25
2019-02-16T11:11:04.946Z,98050.47
2019-02-16T11:13:52.007Z,98041.59
2019-02-16T11:16:35.385Z,98033.89
2019-02-16T11:19:07.392Z,98041.45
2019-02-16T11:21:44.141Z,98032.75
2019-02-16T11:24:15.383Z,98028.20
2019-02-16T11:26:46.647Z,98023.88
2019-02-16T11:29:36.067Z,98028.55
2019-02-16T11:32:09.891Z,98019.84
2019-02-16T11:34:57.325Z,98018.84
2019-02-16T11:37:28.589Z,98013.31
2019-02-16T11:40:02.505Z,98014.81
2019-02-16T11:42:42.970Z,98014.81
2019-02-16T11:45:15.054Z,98010.09
2019-02-16T11:48:02.810Z,98016.62
2019-02-16T11:50:46.955Z,98014.75
2019-02-16T11:53:30.045Z,98016.10
2019-02-16T11:55:59.465Z,98013.25
2019-02-16T11:58:37.457Z,98012.69
2019-02-16T12:01:25.032Z,98001.24
2019-02-16T12:03:56.273Z,98003.48
2019-02-16T12:06:36.595Z,98001.30
2019-02-16T12:09:12.423Z,97996.36
2019-02-16T12:11:59.884Z,97993.27
2019-02-16T12:14:38.379Z,97988.78
2019-02-16T12:17:18.786Z,97981.75
2019-02-16T12:19:55.763Z,97975.02
2019-02-16T12:22:27.003Z,97972.33
2019-02-16T12:25:05.367Z,97970.27
2019-02-16T12:27:34.854Z,97965.92
2019-02-16T12:30:11.186Z,97965.53
2019-02-16T12:33:00.531Z,97955.35
2019-02-16T12:35:42.153Z,97961.22
2019-02-16T12:38:16.008Z,97953.22
2019-02-16T12:40:49.958Z,97949.85
2019-02-16T12:43:37.532Z,97944.42
2019-02-16T12:46:06.999Z,97943.06
2019-02-16T12:48:38.242Z,97940.60
2019-02-16T12:51:12.634Z,97941.37
2019-02-16T12:53:54.518Z,97935.31
2019-02-16T12:56:28.208Z,97933.27
2019-02-16T12:59:05.171Z,97938.34
2019-02-16T13:01:37.270Z,97928.84
2019-02-16T13:04:12.158Z,97928.47
2019-02-16T13:06:46.194Z,97916.37
2019-02-16T13:09:35.985Z,97922.58
2019-02-16T13:12:10.173Z,97917.80
2019-02-16T13:14:42.300Z,97916.16
2019-02-16T13:17:19.486Z,97911.72
2019-02-16T13:19:53.289Z,97909.67
2019-02-16T13:22:24.554Z,97912.27
2019-02-16T13:25:12.029Z,97912.21
2019-02-16T13:27:55.421Z,97910.02
2019-02-16T13:30:33.978Z,97910.77
2019-02-16T13:33:23.478Z,97912.48
2019-02-16T13:39:15.271Z,97901.98
2019-02-16T13:41:46.515Z,97903.77
2019-02-16T13:44:18.525Z,97897.28
2019-02-16T13:47:02.038Z,97902.14
2019-02-16T13:49:33.273Z,97894.48
2019-02-16T13:52:11.874Z,97897.84
2019-02-16T13:54:48.636Z,97896.55
2019-02-16T13:57:25.644Z,97899.55
2019-02-16T14:00:06.849Z,97900.70
2019-02-16T14:02:43.887Z,97900.78
2019-02-16T14:05:18.071Z,97905.05
2019-02-16T14:07:56.422Z,97899.66
2019-02-16T14:10:41.033Z,97899.33
2019-02-16T14:13:15.140Z,97900.88
2019-02-16T14:15:52.240Z,97897.91
2019-02-16T14:18:21.871Z,97900.89
2019-02-16T14:20:51.502Z,97898.25
2019-02-16T14:23:21.099Z,97902.42
2019-02-16T14:25:50.734Z,97896.15
2019-02-16T14:28:20.364Z,97895.39
2019-02-16T14:30:50.312Z,97895.70
2019-02-16T14:33:19.953Z,97893.62
2019-02-16T14:35:49.648Z,97893.31
2019-02-16T14:38:26.725Z,97889.31
2019-02-16T14:40:56.358Z,97893.57
2019-02-16T14:43:25.953Z,97896.09
2019-02-16T14:45:55.594Z,97895.41
2019-02-16T14:48:26.037Z,97900.97
2019-02-16T14:50:55.640Z,97899.16
2019-02-16T14:53:25.264Z,97900.36
2019-02-16T14:55:54.864Z,97899.33
2019-02-16T14:58:24.498Z,97899.50
2019-02-16T15:00:54.105Z,97900.14
2019-02-16T15:03:23.718Z,97899.67
2019-02-16T15:05:53.316Z,97896.98
2019-02-16T15:08:22.935Z,97898.81
2019-02-16T15:10:52.559Z,97896.83
2019-02-16T15:13:22.161Z,97900.84
2019-02-16T15:15:51.797Z,97895.66
2019-02-16T15:18:21.394Z,97897.47
2019-02-16T15:20:51.015Z,97895.66
2019-02-16T15:23:20.637Z,97889.46
2019-02-16T15:25:50.235Z,97893.17
2019-02-16T15:28:19.871Z,97895.70
2019-02-16T15:30:49.472Z,97890.02
2019-02-16T15:33:19.102Z,97893.70
2019-02-16T15:35:48.737Z,97887.98
2019-02-16T15:38:18.391Z,97887.51
2019-02-16T15:40:47.981Z,97889.55
2019-02-16T15:43:17.728Z,97886.55
2019-02-16T15:45:47.357Z,97893.12
2019-02-16T15:48:16.959Z,97889.78
2019-02-16T15:50:46.590Z,97892.30
2019-02-16T15:53:16.191Z,97893.94
2019-02-16T15:55:45.810Z,97894.55
2019-02-16T15:58:15.455Z,97896.81
2019-02-16T16:00:45.074Z,97900.41
2019-02-16T16:03:14.671Z,97903.33
2019-02-16T16:05:44.279Z,97908.56
2019-02-16T16:08:15.550Z,97896.66
2019-02-16T16:10:52.607Z,97899.05
2019-02-16T16:13:27.627Z,97908.33
2019-02-16T16:16:02.113Z,97904.09
2019-02-16T16:18:36.182Z,97902.98
2019-02-16T16:21:13.392Z,97906.20
2019-02-16T16:24:03.051Z,97902.47
2019-02-16T16:26:37.025Z,97905.77
2019-02-16T16:29:09.343Z,97907.67
2019-02-16T16:31:56.695Z,97905.41
2019-02-16T16:34:31.507Z,97914.29
2019-02-16T16:37:00.872Z,97917.02
2019-02-16T16:39:34.838Z,97918.19
2019-02-16T16:42:14.790Z,97920.78
2019-02-16T16:44:55.191Z,97917.70
2019-02-16T16:47:42.900Z,97920.95
2019-02-16T16:50:26.213Z,97919.23
2019-02-16T16:53:09.401Z,97929.16
2019-02-16T16:55:40.664Z,97927.58
2019-02-16T16:58:12.665Z,97931.08
2019-02-16T17:00:50.879Z,97935.23
2019-02-16T17:03:40.118Z,97939.40
2019-02-16T17:09:39.601Z,97945.85
2019-02-16T17:12:14.789Z,97947.55
2019-02-16T17:14:56.318Z,97949.72
2019-02-16T17:17:30.015Z,97952.53
2019-02-16T17:19:59.435Z,97956.36
2019-02-16T17:22:30.687Z,97949.88
2019-02-16T17:25:04.704Z,97956.13
2019-02-16T17:27:52.176Z,97958.69
2019-02-16T17:30:26.134Z,97954.03
2019-02-16T17:32:57.395Z,97956.52
2019-02-16T17:35:44.752Z,97950.65
2019-02-16T17:38:14.118Z,97957.59
2019-02-16T17:40:45.382Z,97964.40
2019-02-16T17:43:19.323Z,97964.83
2019-02-16T17:45:53.964Z,97966.83
2019-02-16T17:48:25.230Z,97970.20
2019-02-16T17:50:56.500Z,97965.59
2019-02-16T17:53:27.759Z,97972.36
2019-02-16T17:55:59.109Z,97977.08
2019-02-16T17:58:33.165Z,97974.08
2019-02-16T18:01:07.053Z,97970.33
2019-02-16T18:03:48.505Z,97977.12
2019-02-16T18:06:36.065Z,97980.98
2019-02-16T18:09:24.422Z,97973.95
2019-02-16T18:12:01.244Z,97974.42
2019-02-16T18:14:32.478Z,97974.88
2019-02-16T18:17:15.891Z,97977.80
2019-02-16T18:19:56.194Z,97988.00
2019-02-16T18:22:25.586Z,97982.17
2019-02-16T18:25:00.508Z,97975.88
2019-02-16T18:27:31.766Z,97987.16
2019-02-16T18:30:19.262Z,97982.27
2019-02-16T18:32:50.510Z,97983.03
2019-02-16T18:35:37.986Z,97986.81
2019-02-16T18:38:10.233Z,97983.50
2019-02-16T18:40:47.430Z,97985.44
2019-02-16T18:43:18.693Z,97988.28
2019-02-16T18:45:57.265Z,97987.63
2019-02-16T18:48:43.839Z,97989.69
2019-02-16T18:51:15.784Z,97991.13
2019-02-16T18:53:49.942Z,97984.39
2019-02-16T18:56:26.699Z,97988.20
2019-02-16T18:58:56.074Z,97995.12
2019-02-16T19:01:28.096Z,97993.87
2019-02-16T19:04:01.856Z,97992.49
2019-02-16T19:06:38.877Z,97990.42
2019-02-16T19:09:10.197Z,97990.17
2019-02-16T19:11:44.854Z,97989.03
2019-02-16T19:14:19.306Z,97993.41
2019-02-16T19:16:56.400Z,97996.77
2019-02-16T19:19:25.754Z,98002.11
2019-02-16T19:22:13.252Z,97998.40
2019-02-16T19:24:50.363Z,97995.64
2019-02-16T19:27:24.399Z,98002.38
2019-02-16T19:29:56.362Z,98007.75
2019-02-16T19:32:27.883Z,98007.96
2019-02-16T19:34:59.147Z,98007.63
2019-02-16T19:37:30.367Z,98011.65
2019-02-16T19:40:10.523Z,98015.15
2019-02-16T19:42:59.939Z,98010.96
2019-02-16T19:45:31.188Z,98007.27
2019-02-16T19:48:11.619Z,98018.00
2019-02-16T19:50:43.791Z,98016.48
2019-02-16T19:53:15.087Z,98014.51
2019-02-16T19:55:48.969Z,98020.83
2019-02-16T19:58:22.808Z,98021.19
2019-02-16T20:00:56.752Z,98024.64
2019-02-16T20:03:33.772Z,98022.19
2019-02-16T20:06:21.146Z,98025.42
2019-02-16T20:08:55.272Z,98024.77
2019-02-16T20:14:45.046Z,98035.77
2019-02-16T20:17:20.029Z,98029.50
2019-02-16T20:20:01.341Z,98027.14
2019-02-16T20:22:38.429Z,98024.37
2019-02-16T20:25:25.712Z,98022.67
2019-02-16T20:27:57.426Z,98020.20
2019-02-16T20:30:46.705Z,98020.27
2019-02-16T20:33:24.934Z,98028.50
2019-02-16T20:35:59.058Z,98027.67
2019-02-16T20:38:40.579Z,98035.77
2019-02-16T20:41:15.144Z,98033.23
2019-02-16T20:44:02.513Z,98029.59
2019-02-16T20:46:33.778Z,98034.50
2019-02-16T20:49:07.584Z,98029.22
2019-02-16T20:51:56.786Z,98032.23
2019-02-16T20:54:37.238Z,98036.87
2019-02-16T20:57:17.460Z,98026.31
2019-02-16T20:59:51.396Z,98024.74
2019-02-16T21:02:39.044Z,98029.66
2019-02-16T21:05:11.577Z,98029.28
2019-02-16T21:07:40.973Z,98030.23
2019-02-16T21:10:28.420Z,98029.59
2019-02-16T21:13:02.769Z,98023.17
2019-02-16T21:15:34.005Z,98021.99
2019-02-16T21:18:20.551Z,98017.21
2019-02-16T21:21:05.273Z,98014.88
2019-02-16T21:23:42.679Z,98015.70
2019-02-16T21:26:22.771Z,98011.00
2019-02-16T21:29:09.222Z,98010.56
2019-02-16T21:31:45.541Z,98011.09
2019-02-16T21:34:16.804Z,98009.25
2019-02-16T21:36:48.055Z,98009.98
2019-02-16T21:39:25.158Z,98012.91
2019-02-16T21:42:01.977Z,98005.94
2019-02-16T21:44:35.829Z,98000.50
2019-02-16T21:47:07.052Z,98000.32
2019-02-16T21:49:54.056Z,97998.98
2019-02-16T21:55:56.322Z,97995.87
2019-02-16T21:58:43.612Z,98001.27
2019-02-16T22:01:20.344Z,97996.91
2019-02-16T22:03:54.155Z,97999.50
2019-02-16T22:06:38.210Z,97998.72
2019-02-16T22:09:24.665Z,97999.91
2019-02-16T22:12:12.968Z,97990.05
2019-02-16T22:14:42.582Z,97988.25
2019-02-16T22:17:12.453Z,97992.64
2019-02-16T22:19:42.045Z,97986.10
2019-02-16T22:22:11.662Z,97989.39
2019-02-16T22:24:41.255Z,97986.81
2019-02-16T22:27:10.873Z,97989.69
2019-02-16T22:29:40.472Z,97987.46
2019-02-16T22:32:10.079Z,97984.59
2019-02-16T22:34:39.677Z,97983.69
2019-02-16T22:37:09.304Z,97986.52
2019-02-16T22:39:38.989Z,97981.81
2019-02-16T22:42:08.583Z,97981.27
2019-02-16T22:44:38.209Z,97983.98
2019-02-16T22:47:07.823Z,97979.29
2019-02-16T22:49:37.413Z,97974.23
2019-02-16T22:52:07.123Z,97973.83
2019-02-16T22:54:36.722Z,97972.81
2019-02-16T22:57:06.634Z,97974.62
2019-02-16T22:59:36.251Z,97973.50
2019-02-16T23:02:08.549Z,97976.66
2019-02-16T23:04:37.591Z,97975.44
2019-02-16T23:07:07.456Z,97969.36
2019-02-16T23:09:37.055Z,97969.58
2019-02-16T23:12:07.683Z,97967.02
2019-02-16T23:14:37.937Z,97966.97
2019-02-16T23:17:07.595Z,97959.73
2019-02-16T23:19:37.211Z,97966.09
2019-02-16T23:22:06.826Z,97961.15
2019-02-16T23:24:36.718Z,97960.06
2019-02-16T23:27:06.678Z,97963.98
2019-02-16T23:29:36.421Z,97957.63
2019-02-16T23:32:06.185Z,97958.52
2019-02-16T23:34:35.800Z,97953.94
2019-02-16T23:37:05.530Z,97959.17
2019-02-16T23:39:37.022Z,97950.28
2019-02-16T23:42:06.769Z,97950.86
2019-02-16T23:44:36.393Z,97948.31
2019-02-16T23:47:06.088Z,97941.07
2019-02-16T23:49:35.679Z,97939.42
2019-02-16T23:52:05.367Z,97937.67
2019-02-16T23:54:34.980Z,97939.34
2019-02-16T23:57:04.843Z,97935.05
2019-02-16T23:59:34.474Z,97931.23
